Chute-des-Passes, Canada
Current Conditions -  °F | °C
As of 2:00 PM on Monday 20 Oct 2014 (Local Time) from CYRJ Reporting Station
Broken Clouds Broken Clouds  
Wind Chill: 33°   Ceiling: 3000
Heat Index: 39°   Visibility: 40mi
Dew Point: 23°   Wind: 9mph
Humidity: 52%   Direction: 320°NW
Pressure: 29.86"   Gusts: 17mph
Location:  49.87°N, 71.28°W
Report Text: CYRJ 201800Z 32008G15KT 270V340 40SM BKN030 BKN100 04/M05 A2986 RMK SC7AC1 AC TR SLP119
Loading
Personal Weather Stations






























Interactive Weather Map
Tropical Storm Tracking
New forecast layout! Learn more

10-Day Weather Forecast

Advertisements
Track Severe Weather on mobile